createdAt,value
2023-01-04T00:02:03.454Z,1.70
2023-01-04T00:04:31.957Z,2.75
2023-01-04T00:07:00.278Z,2.03
2023-01-04T00:09:28.489Z,2.35
2023-01-04T00:11:56.849Z,2.35
2023-01-04T00:14:24.822Z,1.73
2023-01-04T00:16:54.329Z,2.12
2023-01-04T00:19:22.825Z,2.10
2023-01-04T00:21:54.043Z,1.83
2023-01-04T00:24:22.628Z,2.00
2023-01-04T00:26:50.753Z,1.92
2023-01-04T00:29:19.136Z,2.37
2023-01-04T00:31:47.614Z,1.85
2023-01-04T00:34:18.871Z,2.40
2023-01-04T00:36:47.665Z,1.87
2023-01-04T00:39:18.196Z,2.22
2023-01-04T00:41:58.787Z,1.80
2023-01-04T00:44:28.991Z,1.60
2023-01-04T00:47:00.694Z,2.00
2023-01-04T00:49:31.572Z,2.05
2023-01-04T00:52:00.386Z,2.08
2023-01-04T00:54:29.025Z,2.70
2023-01-04T00:56:57.078Z,1.77
2023-01-04T00:59:25.199Z,2.65
2023-01-04T01:01:53.930Z,2.60
2023-01-04T01:04:25.632Z,2.53
2023-01-04T01:06:56.009Z,1.75
2023-01-04T01:09:24.414Z,1.92
2023-01-04T01:11:53.712Z,2.65
2023-01-04T01:14:25.351Z,2.35
2023-01-04T01:16:57.840Z,1.90
2023-01-04T01:19:29.170Z,1.75
2023-01-04T01:21:59.429Z,2.20
2023-01-04T01:24:28.884Z,1.70
2023-01-04T01:26:56.977Z,2.17
2023-01-04T01:29:25.283Z,1.80
2023-01-04T01:31:54.510Z,2.45
2023-01-04T01:34:22.792Z,1.95
2023-01-04T01:36:50.919Z,2.15
2023-01-04T01:39:20.556Z,1.98
2023-01-04T01:41:49.122Z,2.28
2023-01-04T01:44:58.503Z,2.35
2023-01-04T01:47:31.364Z,2.15
2023-01-04T01:49:59.534Z,2.22
2023-01-04T01:52:31.959Z,2.10
2023-01-04T01:55:04.394Z,2.00
2023-01-04T01:57:35.651Z,2.05
2023-01-04T02:00:08.347Z,2.40
2023-01-04T02:02:46.384Z,1.60
2023-01-04T02:05:15.345Z,1.85
2023-01-04T02:07:44.454Z,2.05
2023-01-04T02:10:15.132Z,1.83
2023-01-04T02:12:44.369Z,1.83
2023-01-04T02:15:13.128Z,2.17
2023-01-04T02:17:50.527Z,1.75
2023-01-04T02:20:32.152Z,2.15
2023-01-04T02:23:30.577Z,2.00
2023-01-04T02:26:26.750Z,1.50
2023-01-04T02:29:37.254Z,2.17
2023-01-04T02:32:15.673Z,1.52
2023-01-04T02:34:58.537Z,2.00
2023-01-04T02:37:37.988Z,1.77
2023-01-04T02:40:14.168Z,1.65
2023-01-04T02:43:12.229Z,1.83
2023-01-04T02:45:48.201Z,2.05
2023-01-04T02:48:35.252Z,1.92
2023-01-04T02:51:03.229Z,1.92
2023-01-04T02:53:36.556Z,1.60
2023-01-04T02:56:16.144Z,1.73
2023-01-04T02:59:00.248Z,2.05
2023-01-04T03:01:54.647Z,1.75
2023-01-04T03:04:55.632Z,1.48
2023-01-04T03:07:29.086Z,2.12
2023-01-04T03:10:06.983Z,1.80
2023-01-04T03:12:43.014Z,1.92
2023-01-04T03:15:16.087Z,2.10
2023-01-04T03:17:50.466Z,1.85
2023-01-04T03:20:21.753Z,2.10
2023-01-04T03:23:12.820Z,2.00
2023-01-04T03:26:02.318Z,2.00
2023-01-04T03:28:54.143Z,2.20
2023-01-04T03:31:46.293Z,2.60
2023-01-04T03:34:32.619Z,2.20
2023-01-04T03:37:15.921Z,2.40
2023-01-04T03:40:12.228Z,1.98
2023-01-04T03:43:05.327Z,2.42
2023-01-04T03:45:58.156Z,1.90
2023-01-04T03:48:33.349Z,1.90
2023-01-04T03:51:08.445Z,2.05
2023-01-04T03:53:46.622Z,2.17
2023-01-04T03:56:17.217Z,2.10
2023-01-04T03:58:45.616Z,1.90
2023-01-04T04:01:14.249Z,2.00
2023-01-04T04:04:00.270Z,1.77
2023-01-04T04:06:46.053Z,1.77
2023-01-04T04:09:15.827Z,2.05
2023-01-04T04:11:44.178Z,2.10
2023-01-04T04:14:12.261Z,1.80
2023-01-04T04:16:40.909Z,1.77
2023-01-04T04:19:09.444Z,1.27
2023-01-04T04:21:37.862Z,1.77
2023-01-04T04:24:07.606Z,1.90
2023-01-04T04:26:37.144Z,1.73
2023-01-04T04:29:05.244Z,1.60
2023-01-04T04:31:33.569Z,1.25
2023-01-04T04:34:01.658Z,1.40
2023-01-04T04:36:29.687Z,1.35
2023-01-04T04:38:58.078Z,1.50
2023-01-04T04:41:41.426Z,1.33
2023-01-04T04:44:13.819Z,1.10
2023-01-04T04:46:42.341Z,1.42
2023-01-04T04:49:11.442Z,1.30
2023-01-04T04:51:39.619Z,1.17
2023-01-04T04:54:09.529Z,1.33
2023-01-04T04:56:38.958Z,1.20
2023-01-04T04:59:07.424Z,0.85
2023-01-04T05:01:36.982Z,1.17
2023-01-04T05:04:05.800Z,1.25
2023-01-04T05:06:34.182Z,1.40
2023-01-04T05:09:02.468Z,1.05
2023-01-04T05:11:48.506Z,1.02
2023-01-04T05:14:16.731Z,1.60
2023-01-04T05:16:46.486Z,1.12
2023-01-04T05:19:14.760Z,0.70
2023-01-04T05:21:43.014Z,1.40
2023-01-04T05:24:13.169Z,0.95
2023-01-04T05:26:41.686Z,0.90
2023-01-04T05:29:30.313Z,0.60
2023-01-04T05:31:59.112Z,0.90
2023-01-04T05:34:27.165Z,0.68
2023-01-04T05:36:55.146Z,0.55
2023-01-04T05:39:23.530Z,0.73
2023-01-04T05:42:09.118Z,0.70
2023-01-04T05:44:37.396Z,0.60
2023-01-04T05:47:12.910Z,0.80
2023-01-04T05:49:43.095Z,0.80
2023-01-04T05:52:11.733Z,0.50
2023-01-04T05:54:39.824Z,0.65
2023-01-04T05:57:08.318Z,0.60
2023-01-04T05:59:42.121Z,0.80
2023-01-04T06:02:17.957Z,0.95
2023-01-04T06:04:46.938Z,0.68
2023-01-04T06:07:16.071Z,0.88
2023-01-04T06:09:44.654Z,1.00
2023-01-04T06:12:13.747Z,0.80
2023-01-04T06:14:42.412Z,1.17
2023-01-04T06:17:10.669Z,0.98
2023-01-04T06:19:40.446Z,0.60
2023-01-04T06:22:08.662Z,0.60
2023-01-04T06:24:36.736Z,1.02
2023-01-04T06:27:05.375Z,0.98
2023-01-04T06:29:33.430Z,0.90
2023-01-04T06:32:01.543Z,1.33
2023-01-04T06:34:31.364Z,0.85
2023-01-04T06:37:01.155Z,1.00
2023-01-04T06:39:29.456Z,0.85
2023-01-04T06:42:05.498Z,1.00
2023-01-04T06:44:34.911Z,0.77
2023-01-04T06:47:02.984Z,0.70
2023-01-04T06:49:30.960Z,1.00
2023-01-04T06:52:00.809Z,0.88
2023-01-04T06:54:29.837Z,1.12
2023-01-04T06:56:57.974Z,0.88
2023-01-04T06:59:26.241Z,1.20
2023-01-04T07:01:54.391Z,0.88
2023-01-04T07:04:22.596Z,0.80
2023-01-04T07:06:50.989Z,1.15
2023-01-04T07:09:20.682Z,1.12
2023-01-04T07:11:48.775Z,0.80
2023-01-04T07:14:17.246Z,0.68
2023-01-04T07:16:45.384Z,0.80
2023-01-04T07:19:13.433Z,0.75
2023-01-04T07:21:42.497Z,0.70
2023-01-04T07:24:10.926Z,0.77
2023-01-04T07:26:40.349Z,1.08
2023-01-04T07:29:17.258Z,0.90
2023-01-04T07:31:48.004Z,1.00
2023-01-04T07:34:17.419Z,1.00
2023-01-04T07:36:45.791Z,1.02
2023-01-04T07:39:14.085Z,1.23
2023-01-04T07:41:48.114Z,0.60
2023-01-04T07:44:19.570Z,0.85
2023-01-04T07:46:48.293Z,1.00
2023-01-04T07:49:18.587Z,1.17
2023-01-04T07:51:47.700Z,0.50
2023-01-04T07:54:16.573Z,1.20
2023-01-04T07:56:47.234Z,0.80
2023-01-04T07:59:17.006Z,0.80
2023-01-04T08:01:45.970Z,1.00
2023-01-04T08:04:15.148Z,0.65
2023-01-04T08:06:46.588Z,0.80
2023-01-04T08:09:15.126Z,1.00
2023-01-04T08:11:43.082Z,0.65
2023-01-04T08:14:13.293Z,1.15
2023-01-04T08:16:43.488Z,0.70
2023-01-04T08:19:16.170Z,0.88
2023-01-04T08:21:45.492Z,0.90
2023-01-04T08:24:15.613Z,0.68
2023-01-04T08:26:43.779Z,0.70
2023-01-04T08:29:14.586Z,0.90
2023-01-04T08:31:43.162Z,0.70
2023-01-04T08:34:11.748Z,0.65
2023-01-04T08:36:52.027Z,0.90
2023-01-04T08:39:25.265Z,0.60
2023-01-04T08:42:00.399Z,0.90
2023-01-04T08:44:35.520Z,1.10
2023-01-04T08:47:03.874Z,0.80
2023-01-04T08:49:31.937Z,0.68
2023-01-04T08:52:00.140Z,0.70
2023-01-04T08:54:28.347Z,0.90
2023-01-04T08:56:56.514Z,0.45
2023-01-04T08:59:24.904Z,0.90
2023-01-04T09:01:57.397Z,0.60
2023-01-04T09:04:30.013Z,0.80
2023-01-04T09:06:59.033Z,0.80
2023-01-04T09:09:27.220Z,0.73
2023-01-04T09:11:55.537Z,0.50
2023-01-04T09:14:23.795Z,1.10
2023-01-04T09:16:52.011Z,0.60
2023-01-04T09:19:22.767Z,0.75
2023-01-04T09:21:50.975Z,0.65
2023-01-04T09:24:19.380Z,0.60
2023-01-04T09:26:47.996Z,0.57
2023-01-04T09:29:16.061Z,0.70
2023-01-04T09:31:45.997Z,0.55
2023-01-04T09:34:17.083Z,0.60
2023-01-04T09:36:48.465Z,0.70
2023-01-04T09:39:22.949Z,0.60
2023-01-04T09:41:58.191Z,0.57
2023-01-04T09:45:21.422Z,0.65
2023-01-04T09:47:34.694Z,0.60
2023-01-04T09:50:10.479Z,0.85
2023-01-04T09:52:50.291Z,0.70
2023-01-04T09:55:38.671Z,0.75
2023-01-04T09:58:18.841Z,0.60
2023-01-04T10:00:51.344Z,1.00
2023-01-04T10:03:24.873Z,0.47
2023-01-04T10:05:54.989Z,0.80
2023-01-04T10:08:24.828Z,0.90
2023-01-04T10:11:05.270Z,0.37
2023-01-04T10:13:53.110Z,0.50
2023-01-04T10:17:01.899Z,0.70
2023-01-04T10:22:29.094Z,0.50
2023-01-04T10:25:11.018Z,0.30
2023-01-04T10:27:50.906Z,0.37
2023-01-04T10:30:32.167Z,0.52
2023-01-04T10:33:09.017Z,0.55
2023-01-04T10:35:37.343Z,0.32
2023-01-04T10:38:17.181Z,0.40
2023-01-04T10:40:50.425Z,0.65
2023-01-04T10:44:11.482Z,0.55
2023-01-04T10:46:32.122Z,0.60
2023-01-04T10:49:10.907Z,0.40
2023-01-04T10:51:45.733Z,0.32
2023-01-04T10:54:22.417Z,0.30
2023-01-04T10:56:58.630Z,0.50
2023-01-04T10:59:35.286Z,0.60
2023-01-04T11:02:13.982Z,0.77
2023-01-04T11:04:45.793Z,0.60
2023-01-04T11:07:19.601Z,0.50
2023-01-04T11:09:53.228Z,0.47
2023-01-04T11:12:24.664Z,0.73
2023-01-04T11:14:53.087Z,0.47
2023-01-04T11:17:22.805Z,0.50
2023-01-04T11:19:51.293Z,0.50
2023-01-04T11:22:25.213Z,0.80
2023-01-04T11:27:52.263Z,0.70
2023-01-04T11:30:23.683Z,0.73
2023-01-04T11:32:58.220Z,0.50
2023-01-04T11:35:42.843Z,0.73
2023-01-04T11:38:14.630Z,0.80
2023-01-04T11:40:43.578Z,0.90
2023-01-04T11:43:17.952Z,0.50
2023-01-04T11:45:58.199Z,0.80
2023-01-04T11:48:35.305Z,0.50
2023-01-04T11:51:05.004Z,0.80
2023-01-04T11:53:34.971Z,0.50
2023-01-04T11:56:19.624Z,0.77
2023-01-04T11:59:11.817Z,0.90
2023-01-04T12:01:42.109Z,0.75
2023-01-04T12:04:17.243Z,0.60
2023-01-04T12:06:51.693Z,0.70
2023-01-04T12:09:21.892Z,0.82
2023-01-04T12:11:52.247Z,0.70
2023-01-04T12:14:28.124Z,0.60
2023-01-04T12:17:03.020Z,0.77
2023-01-04T12:19:32.056Z,0.60
2023-01-04T12:22:02.982Z,0.93
2023-01-04T12:24:33.418Z,0.70
2023-01-04T12:27:02.624Z,0.55
2023-01-04T12:29:43.769Z,0.60
2023-01-04T12:32:42.203Z,0.73
2023-01-04T12:36:06.839Z,0.57
2023-01-04T12:39:05.738Z,0.70
2023-01-04T12:42:17.788Z,0.50
2023-01-04T12:45:19.069Z,0.60
2023-01-04T12:48:05.714Z,0.70
2023-01-04T12:51:37.390Z,0.70
2023-01-04T12:54:31.663Z,0.60
2023-01-04T12:57:11.879Z,0.40
2023-01-04T12:59:53.578Z,0.40
2023-01-04T13:02:24.858Z,0.60
2023-01-04T13:05:16.911Z,0.50
2023-01-04T13:07:46.732Z,0.50
2023-01-04T13:10:28.736Z,0.30
2023-01-04T13:13:21.989Z,0.60
2023-01-04T13:16:02.661Z,0.50
2023-01-04T13:18:37.955Z,0.68
2023-01-04T13:21:13.797Z,0.30
2023-01-04T13:23:49.519Z,0.50
2023-01-04T13:26:37.119Z,0.30
2023-01-04T13:29:16.770Z,0.60
2023-01-04T13:31:52.597Z,0.60
2023-01-04T13:34:23.893Z,0.30
2023-01-04T13:36:57.610Z,0.30
2023-01-04T13:39:26.071Z,0.30
2023-01-04T13:41:56.303Z,0.30
2023-01-04T13:47:30.636Z,0.32
2023-01-04T13:49:59.152Z,0.50
2023-01-04T13:55:22.153Z,0.40
2023-01-04T13:57:56.412Z,0.30
2023-01-04T14:00:31.087Z,0.45
2023-01-04T14:03:15.678Z,0.40
2023-01-04T14:05:49.275Z,0.37
2023-01-04T14:08:22.658Z,0.40
2023-01-04T14:10:51.194Z,0.30
2023-01-04T14:13:21.634Z,0.37
2023-01-04T14:16:05.788Z,0.37
2023-01-04T14:18:34.146Z,0.30
2023-01-04T14:21:02.312Z,0.35
2023-01-04T14:23:34.708Z,0.40
2023-01-04T14:26:03.116Z,0.52
2023-01-04T14:28:43.151Z,0.40
2023-01-04T14:31:36.092Z,0.30
2023-01-04T14:34:16.994Z,0.32
2023-01-04T14:36:46.087Z,0.25
2023-01-04T14:39:27.293Z,0.50
2023-01-04T14:41:57.697Z,0.30
2023-01-04T14:44:30.906Z,0.37
2023-01-04T14:47:01.331Z,0.20
2023-01-04T14:49:31.740Z,0.30
2023-01-04T14:52:02.102Z,0.70
2023-01-04T14:54:35.317Z,1.00
2023-01-04T14:57:04.329Z,0.60
2023-01-04T14:59:33.685Z,0.50
2023-01-04T15:02:01.843Z,0.95
2023-01-04T15:04:30.450Z,1.12
2023-01-04T15:07:00.195Z,0.90
2023-01-04T15:09:29.364Z,1.02
2023-01-04T15:11:57.959Z,0.43
2023-01-04T15:14:26.366Z,0.70
2023-01-04T15:16:55.866Z,0.55
2023-01-04T15:19:24.275Z,0.57
2023-01-04T15:21:52.545Z,0.70
2023-01-04T15:24:20.808Z,0.32
2023-01-04T15:26:49.717Z,0.28
2023-01-04T15:29:17.633Z,0.70
2023-01-04T15:31:45.637Z,0.40
2023-01-04T15:34:15.279Z,0.80
2023-01-04T15:36:43.831Z,1.00
2023-01-04T15:39:14.148Z,0.65
2023-01-04T15:42:00.589Z,1.00
2023-01-04T15:44:28.662Z,0.47
2023-01-04T15:46:59.472Z,0.40
2023-01-04T15:49:29.912Z,0.30
2023-01-04T15:51:58.442Z,0.40
2023-01-04T15:54:26.989Z,0.37
2023-01-04T15:56:56.613Z,0.40
2023-01-04T15:59:25.966Z,0.37
2023-01-04T16:01:54.281Z,0.30
2023-01-04T16:04:22.798Z,0.60
2023-01-04T16:06:52.083Z,0.68
2023-01-04T16:09:20.119Z,0.70
2023-01-04T16:12:06.199Z,1.20
2023-01-04T16:14:34.335Z,0.40
2023-01-04T16:17:02.543Z,0.70
2023-01-04T16:19:34.281Z,0.50
2023-01-04T16:22:03.844Z,0.47
2023-01-04T16:27:20.332Z,0.30
2023-01-04T16:29:50.460Z,0.37
2023-01-04T16:32:18.807Z,0.20
2023-01-04T16:34:47.347Z,0.60
2023-01-04T16:37:17.011Z,0.77
2023-01-04T16:42:34.285Z,0.52
2023-01-04T16:45:02.239Z,0.40
2023-01-04T16:47:30.480Z,0.60
2023-01-04T16:49:58.806Z,0.80
2023-01-04T16:52:29.631Z,0.30
2023-01-04T16:54:57.633Z,0.60
2023-01-04T16:57:25.841Z,0.40
2023-01-04T16:59:53.942Z,0.32
2023-01-04T17:02:23.178Z,0.60
2023-01-04T17:04:55.530Z,0.50
2023-01-04T17:07:23.938Z,0.55
2023-01-04T17:09:53.759Z,0.80
2023-01-04T17:17:59.721Z,0.68
2023-01-04T17:20:28.198Z,0.50
2023-01-04T17:22:56.054Z,0.40
2023-01-04T17:25:25.314Z,0.30
2023-01-04T17:27:53.516Z,0.20
2023-01-04T17:30:21.688Z,0.37
2023-01-04T17:32:49.725Z,0.40
2023-01-04T17:35:18.208Z,0.20
2023-01-04T17:37:46.192Z,0.20
2023-01-04T17:40:19.049Z,0.30
2023-01-04T17:42:52.470Z,0.32
2023-01-04T17:45:20.796Z,0.20
2023-01-04T17:47:49.082Z,0.30
2023-01-04T17:50:18.196Z,0.20
2023-01-04T17:52:47.549Z,0.20
2023-01-04T17:55:16.121Z,0.20
2023-01-04T17:57:44.724Z,0.20
2023-01-04T18:00:16.042Z,0.32
2023-01-04T18:02:44.774Z,0.13
2023-01-04T18:05:12.864Z,0.20
2023-01-04T18:07:40.910Z,0.10
2023-01-04T18:10:20.769Z,0.15
2023-01-04T18:12:49.476Z,0.20
2023-01-04T18:15:20.057Z,0.17
2023-01-04T18:17:48.149Z,0.25
2023-01-04T18:20:24.713Z,0.25
2023-01-04T18:22:53.694Z,0.30
2023-01-04T18:25:21.998Z,0.20
2023-01-04T18:27:50.324Z,0.25
2023-01-04T18:30:20.322Z,0.30
2023-01-04T18:32:51.743Z,0.30
2023-01-04T18:35:20.062Z,0.20
2023-01-04T18:37:48.045Z,0.10
2023-01-04T18:40:16.379Z,0.20
2023-01-04T18:42:48.343Z,0.50
2023-01-04T18:45:17.012Z,0.40
2023-01-04T18:47:47.995Z,0.37
2023-01-04T18:50:16.568Z,0.10
2023-01-04T18:52:44.642Z,0.28
2023-01-04T18:55:13.242Z,0.10
2023-01-04T18:57:41.628Z,0.20
2023-01-04T19:00:11.597Z,0.20
2023-01-04T19:02:40.258Z,0.20
2023-01-04T19:05:11.315Z,0.30
2023-01-04T19:07:40.261Z,0.10
2023-01-04T19:10:09.379Z,0.20
2023-01-04T19:12:38.878Z,0.20
2023-01-04T19:15:09.243Z,0.20
2023-01-04T19:17:37.361Z,0.13
2023-01-04T19:20:06.222Z,0.28
2023-01-04T19:22:35.853Z,0.13
2023-01-04T19:25:04.042Z,0.20
2023-01-04T19:27:32.254Z,0.50
2023-01-04T19:30:00.674Z,0.20
2023-01-04T19:32:33.469Z,0.30
2023-01-04T19:35:02.602Z,0.20
2023-01-04T19:37:30.818Z,0.10
2023-01-04T19:40:00.391Z,0.40
2023-01-04T19:42:28.697Z,0.20
2023-01-04T19:44:56.674Z,0.20
2023-01-04T19:47:24.969Z,0.30
2023-01-04T19:49:53.240Z,0.20
2023-01-04T19:52:21.566Z,0.40
2023-01-04T19:54:49.753Z,0.22
2023-01-04T19:57:19.410Z,0.13
2023-01-04T19:59:47.489Z,0.10
2023-01-04T20:02:15.750Z,0.20
2023-01-04T20:04:44.149Z,0.20
2023-01-04T20:07:12.665Z,0.10
2023-01-04T20:09:40.730Z,0.10
2023-01-04T20:12:09.113Z,0.10
2023-01-04T20:14:39.396Z,0.10
2023-01-04T20:17:07.748Z,0.20
2023-01-04T20:19:36.356Z,0.10
2023-01-04T20:22:04.301Z,0.20
2023-01-04T20:24:32.558Z,0.17
2023-01-04T20:27:00.851Z,0.20
2023-01-04T20:29:28.972Z,0.22
2023-01-04T20:32:00.623Z,0.10
2023-01-04T20:34:28.873Z,0.13
2023-01-04T20:36:56.931Z,0.30
2023-01-04T20:39:25.231Z,0.20
2023-01-04T20:42:11.135Z,0.20
2023-01-04T20:44:39.323Z,0.20
2023-01-04T20:47:09.004Z,0.20
2023-01-04T20:49:37.112Z,0.10
2023-01-04T20:52:05.447Z,0.30
2023-01-04T20:54:33.826Z,0.30
2023-01-04T20:57:01.930Z,0.30
2023-01-04T20:59:30.064Z,0.20
2023-01-04T21:01:58.608Z,0.10
2023-01-04T21:04:28.491Z,0.10
2023-01-04T21:06:56.540Z,0.10
2023-01-04T21:09:24.846Z,0.20
2023-01-04T21:11:56.325Z,0.20
2023-01-04T21:14:25.567Z,0.10
2023-01-04T21:16:53.597Z,0.10
2023-01-04T21:19:24.232Z,0.15
2023-01-04T21:21:53.965Z,0.10
2023-01-04T21:24:22.068Z,0.10
2023-01-04T21:26:50.226Z,0.20
2023-01-04T21:29:18.729Z,0.10
2023-01-04T21:31:46.721Z,0.10
2023-01-04T21:34:19.504Z,0.20
2023-01-04T21:36:50.922Z,0.20
2023-01-04T21:39:20.424Z,0.10
2023-01-04T21:41:51.209Z,0.10
2023-01-04T21:44:19.715Z,0.10
2023-01-04T21:46:47.765Z,0.17
2023-01-04T21:49:15.832Z,0.10
2023-01-04T21:51:44.171Z,0.10
2023-01-04T21:54:12.160Z,0.10
2023-01-04T21:56:41.556Z,0.10
2023-01-04T21:59:10.253Z,0.10
2023-01-04T22:01:38.316Z,0.17
2023-01-04T22:04:07.489Z,0.10
2023-01-04T22:06:38.607Z,0.17
2023-01-04T22:09:20.145Z,0.20
2023-01-04T22:12:25.739Z,0.20
2023-01-04T22:36:19.109Z,0.13
2023-01-04T22:44:50.161Z,0.40
2023-01-04T22:47:42.959Z,0.30
2023-01-04T22:50:12.087Z,0.40
2023-01-04T22:52:44.611Z,0.37
2023-01-04T22:55:17.299Z,0.50
2023-01-04T22:57:45.593Z,0.22
2023-01-04T23:00:18.080Z,0.37
2023-01-04T23:02:46.716Z,0.30
2023-01-04T23:05:28.932Z,0.50
2023-01-04T23:07:58.624Z,0.40
2023-01-04T23:10:26.718Z,0.93
2023-01-04T23:12:54.760Z,0.28
2023-01-04T23:15:23.066Z,0.80
2023-01-04T23:17:51.102Z,0.35
2023-01-04T23:20:20.510Z,0.60
2023-01-04T23:22:48.931Z,0.52
2023-01-04T23:25:18.260Z,0.37
2023-01-04T23:27:46.440Z,0.65
2023-01-04T23:30:15.261Z,0.50
2023-01-04T23:32:44.186Z,0.80
2023-01-04T23:35:12.237Z,0.50
2023-01-04T23:37:40.557Z,0.50
2023-01-04T23:40:09.107Z,1.30
2023-01-04T23:42:39.760Z,0.57
2023-01-04T23:45:09.263Z,1.20
2023-01-04T23:47:37.365Z,0.40
2023-01-04T23:50:06.101Z,0.60
2023-01-04T23:52:34.445Z,0.52
2023-01-04T23:55:02.527Z,0.57
2023-01-04T23:57:30.556Z,0.70
